createdAt,value
2022-12-09T00:01:06.867Z,73.23
2022-12-09T00:03:42.015Z,73.17
2022-12-09T00:06:17.458Z,73.03
2022-12-09T00:08:52.815Z,73.44
2022-12-09T00:11:26.303Z,73.55
2022-12-09T00:14:00.318Z,73.93
2022-12-09T00:16:33.602Z,73.30
2022-12-09T00:19:08.802Z,73.46
2022-12-09T00:21:42.537Z,73.52
2022-12-09T00:24:15.357Z,73.31
2022-12-09T00:26:48.308Z,73.54
2022-12-09T00:29:21.086Z,73.38
2022-12-09T00:31:54.084Z,73.64
2022-12-09T00:34:28.203Z,73.46
2022-12-09T00:37:00.888Z,73.70
2022-12-09T00:39:33.690Z,73.50
2022-12-09T00:42:06.353Z,73.82
2022-12-09T00:44:39.890Z,73.54
2022-12-09T00:47:12.667Z,73.79
2022-12-09T00:49:46.895Z,73.98
2022-12-09T00:52:19.662Z,73.79
2022-12-09T00:54:52.500Z,73.74
2022-12-09T00:57:25.297Z,73.50
2022-12-09T00:59:58.290Z,73.94
2022-12-09T01:02:31.268Z,74.06
2022-12-09T01:05:06.296Z,73.75
2022-12-09T01:07:39.258Z,73.91
2022-12-09T01:10:12.440Z,73.76
2022-12-09T01:12:45.574Z,74.12
2022-12-09T01:15:18.843Z,73.94
2022-12-09T01:17:51.540Z,73.64
2022-12-09T01:20:26.283Z,73.56
2022-12-09T01:22:59.086Z,73.61
2022-12-09T01:25:32.372Z,73.59
2022-12-09T01:28:05.132Z,73.81
2022-12-09T01:30:38.026Z,73.93
2022-12-09T01:33:13.305Z,73.79
2022-12-09T01:35:47.533Z,73.68
2022-12-09T01:38:21.601Z,73.73
2022-12-09T01:40:54.673Z,73.65
2022-12-09T01:43:27.545Z,73.66
2022-12-09T01:46:00.421Z,73.86
2022-12-09T01:48:33.768Z,73.76
2022-12-09T01:51:10.159Z,73.74
2022-12-09T01:53:45.246Z,73.83
2022-12-09T01:56:22.391Z,73.82
2022-12-09T01:58:55.502Z,73.68
2022-12-09T02:01:29.058Z,73.84
2022-12-09T02:04:02.194Z,73.71
2022-12-09T02:06:38.561Z,73.66
2022-12-09T02:09:13.836Z,73.88
2022-12-09T02:11:59.071Z,74.24
2022-12-09T02:14:36.793Z,73.73
2022-12-09T02:17:21.354Z,73.71
2022-12-09T02:20:01.490Z,73.73
2022-12-09T02:22:39.657Z,73.73
2022-12-09T02:25:19.239Z,73.60
2022-12-09T02:27:59.188Z,73.93
2022-12-09T02:30:33.441Z,73.76
2022-12-09T02:33:24.712Z,73.67
2022-12-09T02:36:04.113Z,73.58
2022-12-09T02:38:39.084Z,74.04
2022-12-09T02:41:17.326Z,73.66
2022-12-09T02:43:55.384Z,73.25
2022-12-09T02:46:35.720Z,73.33
2022-12-09T02:49:13.531Z,73.47
2022-12-09T02:51:50.535Z,73.59
2022-12-09T02:54:24.587Z,73.77
2022-12-09T02:57:01.536Z,73.58
2022-12-09T02:59:35.627Z,73.45
2022-12-09T03:02:15.269Z,73.60
2022-12-09T03:04:52.961Z,73.79
2022-12-09T03:07:32.710Z,73.38
2022-12-09T03:10:08.786Z,73.51
2022-12-09T03:12:43.322Z,73.26
2022-12-09T03:15:20.072Z,73.55
2022-12-09T03:17:54.081Z,73.51
2022-12-09T03:20:30.398Z,73.42
2022-12-09T03:23:06.000Z,73.36
2022-12-09T03:25:40.575Z,73.67
2022-12-09T03:28:17.099Z,73.79
2022-12-09T03:30:50.428Z,73.44
2022-12-09T03:33:24.334Z,73.60
2022-12-09T03:35:59.196Z,73.67
2022-12-09T03:38:36.135Z,73.77
2022-12-09T03:41:13.824Z,73.33
2022-12-09T03:43:52.331Z,73.56
2022-12-09T03:46:25.332Z,73.38
2022-12-09T03:48:58.541Z,73.58
2022-12-09T03:51:32.823Z,73.38
2022-12-09T03:54:09.915Z,73.78
2022-12-09T03:56:44.713Z,73.70
2022-12-09T03:59:17.424Z,73.55
2022-12-09T04:01:50.519Z,73.56
2022-12-09T04:04:23.577Z,73.48
2022-12-09T04:06:56.395Z,73.34
2022-12-09T04:09:30.764Z,73.44
2022-12-09T04:12:03.563Z,73.38
2022-12-09T04:14:36.478Z,73.24
2022-12-09T04:17:09.498Z,73.39
2022-12-09T04:19:42.623Z,73.26
2022-12-09T04:22:15.642Z,73.93
2022-12-09T04:24:49.756Z,73.86
2022-12-09T04:27:22.748Z,73.74
2022-12-09T04:29:55.473Z,73.57
2022-12-09T04:32:30.526Z,73.09
2022-12-09T04:35:03.246Z,73.41
2022-12-09T04:37:37.517Z,73.55
2022-12-09T04:40:15.599Z,73.35
2022-12-09T04:42:52.773Z,73.40
2022-12-09T04:45:25.707Z,73.35
2022-12-09T04:47:59.464Z,73.47
2022-12-09T04:50:32.445Z,73.50
2022-12-09T04:53:05.238Z,73.53
2022-12-09T04:55:39.529Z,73.79
2022-12-09T04:58:12.332Z,73.63
2022-12-09T05:00:45.468Z,73.61
2022-12-09T05:03:18.907Z,73.51
2022-12-09T05:05:53.368Z,73.91
2022-12-09T05:08:31.426Z,73.64
2022-12-09T05:11:06.520Z,73.61
2022-12-09T05:13:39.723Z,73.82
2022-12-09T05:16:16.438Z,73.93
2022-12-09T05:18:51.614Z,73.78
2022-12-09T05:21:24.789Z,73.71
2022-12-09T05:23:58.268Z,73.89
2022-12-09T05:26:32.297Z,74.07
2022-12-09T05:29:05.417Z,73.62
2022-12-09T05:31:38.446Z,74.05
2022-12-09T05:34:11.566Z,73.88
2022-12-09T05:36:44.985Z,73.89
2022-12-09T05:39:18.169Z,73.93
2022-12-09T05:41:52.345Z,73.75
2022-12-09T05:44:27.403Z,73.97
2022-12-09T05:47:00.247Z,74.04
2022-12-09T05:49:33.194Z,73.85
2022-12-09T05:52:06.260Z,74.18
2022-12-09T05:54:39.390Z,73.99
2022-12-09T05:57:13.752Z,73.80
2022-12-09T05:59:46.466Z,73.72
2022-12-09T06:02:19.631Z,73.69
2022-12-09T06:04:52.932Z,74.02
2022-12-09T06:07:26.068Z,73.68
2022-12-09T06:09:59.490Z,74.04
2022-12-09T06:12:33.970Z,74.03
2022-12-09T06:15:10.459Z,74.22
2022-12-09T06:17:43.991Z,74.18
2022-12-09T06:20:18.822Z,73.81
2022-12-09T06:22:51.912Z,74.05
2022-12-09T06:25:24.899Z,73.83
2022-12-09T06:27:59.606Z,73.84
2022-12-09T06:30:33.167Z,73.77
2022-12-09T06:33:22.881Z,73.90
2022-12-09T06:36:01.629Z,73.86
2022-12-09T06:38:35.263Z,73.82
2022-12-09T06:41:08.705Z,73.81
2022-12-09T06:43:43.473Z,73.84
2022-12-09T06:46:17.773Z,73.63
2022-12-09T06:48:51.199Z,73.99
2022-12-09T06:51:25.257Z,74.12
2022-12-09T06:53:58.839Z,74.16
2022-12-09T06:56:35.281Z,74.16
2022-12-09T06:59:10.788Z,74.30
2022-12-09T07:01:44.123Z,73.80
2022-12-09T07:04:17.813Z,74.15
2022-12-09T07:06:51.214Z,74.20
2022-12-09T07:09:24.642Z,74.03
2022-12-09T07:11:57.649Z,74.07
2022-12-09T07:14:31.981Z,74.34
2022-12-09T07:17:05.610Z,73.98
2022-12-09T07:19:38.779Z,73.83
2022-12-09T07:22:12.096Z,73.93
2022-12-09T07:24:45.206Z,73.74
2022-12-09T07:27:19.806Z,73.68
2022-12-09T07:29:54.794Z,73.91
2022-12-09T07:32:29.766Z,73.72
2022-12-09T07:35:03.016Z,73.27
2022-12-09T07:37:36.298Z,73.53
2022-12-09T07:40:09.847Z,73.62
2022-12-09T07:42:42.987Z,73.81
2022-12-09T07:45:18.361Z,74.00
2022-12-09T07:47:51.669Z,74.09
2022-12-09T07:50:25.319Z,74.20
2022-12-09T07:52:59.597Z,73.58
2022-12-09T07:56:04.788Z,71.56
2022-12-09T07:58:37.864Z,71.71
2022-12-09T08:01:12.103Z,71.52
2022-12-09T08:03:46.221Z,71.78
2022-12-09T08:06:22.038Z,71.34
2022-12-09T08:08:58.605Z,71.33
2022-12-09T08:11:34.392Z,71.05
2022-12-09T08:14:12.892Z,71.62
2022-12-09T08:16:46.421Z,71.35
2022-12-09T08:19:19.522Z,71.68
2022-12-09T08:21:54.813Z,72.08
2022-12-09T08:24:28.163Z,71.98
2022-12-09T08:27:02.667Z,72.09
2022-12-09T08:29:37.275Z,71.86
2022-12-09T08:32:10.628Z,71.33
2022-12-09T08:34:44.282Z,72.09
2022-12-09T08:37:18.174Z,72.08
2022-12-09T08:39:51.488Z,71.39
2022-12-09T08:42:26.126Z,71.29
2022-12-09T08:45:02.485Z,70.98
2022-12-09T08:47:36.306Z,71.12
2022-12-09T08:50:10.565Z,71.21
2022-12-09T08:52:44.363Z,71.01
2022-12-09T08:55:17.634Z,71.10
2022-12-09T08:57:52.094Z,71.52
2022-12-09T09:00:25.074Z,71.68
2022-12-09T09:02:58.193Z,71.53
2022-12-09T09:05:31.248Z,71.08
2022-12-09T09:08:04.896Z,71.28
2022-12-09T09:10:38.368Z,70.97
2022-12-09T09:13:16.375Z,70.92
2022-12-09T09:15:49.640Z,71.11
2022-12-09T09:18:22.510Z,70.99
2022-12-09T09:20:58.965Z,71.06
2022-12-09T09:23:32.659Z,70.89
2022-12-09T09:26:06.322Z,71.04
2022-12-09T09:28:40.636Z,71.04
2022-12-09T09:31:15.982Z,71.03
2022-12-09T09:33:49.904Z,70.77
2022-12-09T09:36:25.272Z,70.94
2022-12-09T09:38:59.532Z,71.21
2022-12-09T09:41:44.771Z,71.27
2022-12-09T09:44:28.837Z,70.92
2022-12-09T09:47:03.762Z,70.75
2022-12-09T09:49:43.024Z,71.33
2022-12-09T09:52:21.116Z,70.99
2022-12-09T09:54:54.853Z,71.16
2022-12-09T09:57:47.162Z,71.26
2022-12-09T10:00:26.702Z,70.98
2022-12-09T10:03:02.549Z,70.98
2022-12-09T10:05:40.251Z,70.82
2022-12-09T10:08:32.643Z,71.01
2022-12-09T10:11:18.916Z,70.83
2022-12-09T10:13:59.752Z,70.36
2022-12-09T10:16:40.580Z,70.90
2022-12-09T10:19:29.149Z,71.01
2022-12-09T10:22:12.910Z,70.88
2022-12-09T10:24:50.280Z,70.37
2022-12-09T10:27:31.283Z,70.66
2022-12-09T10:30:09.004Z,70.80
2022-12-09T10:32:44.089Z,70.52
2022-12-09T10:35:19.893Z,70.41
2022-12-09T10:37:57.063Z,70.51
2022-12-09T10:40:36.948Z,70.34
2022-12-09T10:43:39.025Z,70.59
2022-12-09T10:46:18.337Z,70.22
2022-12-09T10:48:58.804Z,70.61
2022-12-09T10:51:35.690Z,70.65
2022-12-09T10:54:21.960Z,70.35
2022-12-09T10:57:26.697Z,70.60
2022-12-09T11:00:03.264Z,70.71
2022-12-09T11:02:36.826Z,70.71
2022-12-09T11:05:26.565Z,70.76
2022-12-09T11:08:01.079Z,70.73
2022-12-09T11:10:34.598Z,70.74
2022-12-09T11:13:09.842Z,70.81
2022-12-09T11:15:46.156Z,70.44
2022-12-09T11:18:22.207Z,70.60
2022-12-09T11:20:59.252Z,70.54
2022-12-09T11:23:33.568Z,70.05
2022-12-09T11:26:22.365Z,70.33
2022-12-09T11:29:04.592Z,70.35
2022-12-09T11:31:41.045Z,70.77
2022-12-09T11:34:22.990Z,70.32
2022-12-09T11:37:02.521Z,70.63
2022-12-09T11:39:37.571Z,70.40
2022-12-09T11:42:19.427Z,70.45
2022-12-09T11:44:57.679Z,70.55
2022-12-09T11:47:57.183Z,70.38
2022-12-09T11:50:31.553Z,70.63
2022-12-09T11:53:25.623Z,70.41
2022-12-09T11:56:05.614Z,69.87
2022-12-09T11:58:45.053Z,69.75
2022-12-09T12:01:25.694Z,69.58
2022-12-09T12:04:01.987Z,69.89
2022-12-09T12:06:43.335Z,69.42
2022-12-09T12:09:23.674Z,69.40
2022-12-09T12:12:04.501Z,69.95
2022-12-09T12:14:39.639Z,69.62
2022-12-09T12:17:19.644Z,70.06
2022-12-09T12:19:56.366Z,69.90
2022-12-09T12:22:54.920Z,70.55
2022-12-09T12:25:41.067Z,70.64
2022-12-09T12:28:27.045Z,70.38
2022-12-09T12:31:07.023Z,70.31
2022-12-09T12:36:57.220Z,70.58
2022-12-09T12:39:46.361Z,71.00
2022-12-09T12:42:33.925Z,70.70
2022-12-09T12:45:39.202Z,70.59
2022-12-09T12:48:24.294Z,70.74
2022-12-09T12:51:08.616Z,70.61
2022-12-09T12:53:54.099Z,70.17
2022-12-09T12:56:35.901Z,70.39
2022-12-09T12:59:15.019Z,70.36
2022-12-09T13:01:54.326Z,70.45
2022-12-09T13:04:35.873Z,70.43
2022-12-09T13:07:16.542Z,70.00
2022-12-09T13:09:56.610Z,69.95
2022-12-09T13:12:50.715Z,70.15
2022-12-09T13:15:32.238Z,69.77
2022-12-09T13:18:08.617Z,69.81
2022-12-09T13:20:47.409Z,71.04
2022-12-09T13:23:33.116Z,71.42
2022-12-09T13:26:18.000Z,71.22
2022-12-09T13:29:03.563Z,70.86
2022-12-09T13:31:43.242Z,71.18
2022-12-09T13:34:27.917Z,71.12
2022-12-09T13:37:00.746Z,70.63
2022-12-09T13:39:57.064Z,70.98
2022-12-09T13:42:55.887Z,69.63
2022-12-09T13:45:34.291Z,70.59
2022-12-09T13:48:52.420Z,71.03
2022-12-09T13:51:27.413Z,70.92
2022-12-09T13:54:03.508Z,71.28
2022-12-09T13:56:38.207Z,71.02
2022-12-09T13:59:39.958Z,70.92
2022-12-09T14:02:30.001Z,70.72
2022-12-09T14:05:12.322Z,70.98
2022-12-09T14:07:50.385Z,70.95
2022-12-09T14:10:42.984Z,70.66
2022-12-09T14:13:24.185Z,70.48
2022-12-09T14:16:18.994Z,70.31
2022-12-09T14:18:52.825Z,70.70
2022-12-09T14:21:33.415Z,70.41
2022-12-09T14:24:32.693Z,70.60
2022-12-09T14:27:20.689Z,70.24
2022-12-09T14:29:57.256Z,70.32
2022-12-09T14:32:56.465Z,70.81
2022-12-09T14:35:44.161Z,70.61
2022-12-09T14:38:32.710Z,70.70
2022-12-09T14:41:18.616Z,71.02
2022-12-09T14:44:04.136Z,70.63
2022-12-09T14:46:39.133Z,70.66
2022-12-09T14:49:17.429Z,70.81
2022-12-09T14:51:52.859Z,70.72
2022-12-09T14:54:31.848Z,70.71
2022-12-09T14:57:21.664Z,70.65
2022-12-09T14:59:57.664Z,70.69
2022-12-09T15:02:32.368Z,70.58
2022-12-09T15:05:17.910Z,70.60
2022-12-09T15:07:52.948Z,70.75
2022-12-09T15:10:33.866Z,70.86
2022-12-09T15:13:10.228Z,70.72
2022-12-09T15:15:43.840Z,70.60
2022-12-09T15:18:21.846Z,70.83
2022-12-09T15:20:57.466Z,70.63
2022-12-09T15:23:33.487Z,70.89
2022-12-09T15:26:11.384Z,70.70
2022-12-09T15:28:55.007Z,70.92
2022-12-09T15:31:33.007Z,70.57
2022-12-09T15:34:16.550Z,70.56
2022-12-09T15:36:59.753Z,70.84
2022-12-09T15:39:39.922Z,70.27
2022-12-09T15:42:28.562Z,70.23
2022-12-09T15:45:19.206Z,70.04
2022-12-09T15:47:58.098Z,70.62
2022-12-09T15:50:39.825Z,70.41
2022-12-09T15:53:23.166Z,70.23
2022-12-09T15:56:03.911Z,70.75
2022-12-09T15:58:53.640Z,70.48
2022-12-09T16:01:36.172Z,70.77
2022-12-09T16:04:22.235Z,71.28
2022-12-09T16:07:06.012Z,70.95
2022-12-09T16:09:39.580Z,70.99
2022-12-09T16:12:25.969Z,70.83
2022-12-09T16:15:00.257Z,70.70
2022-12-09T16:17:36.683Z,70.92
2022-12-09T16:20:43.977Z,71.48
2022-12-09T16:23:22.890Z,70.91
2022-12-09T16:26:06.394Z,70.88
2022-12-09T16:28:40.710Z,71.05
2022-12-09T16:31:19.354Z,70.80
2022-12-09T16:33:52.848Z,71.41
2022-12-09T16:36:27.809Z,71.04
2022-12-09T16:39:43.115Z,71.14
2022-12-09T16:42:23.136Z,71.30
2022-12-09T16:45:21.228Z,71.38
2022-12-09T16:47:56.425Z,70.90
2022-12-09T16:50:31.860Z,71.16
2022-12-09T16:53:08.014Z,71.50
2022-12-09T16:55:49.445Z,71.11
2022-12-09T16:58:23.690Z,70.66
2022-12-09T17:00:57.482Z,70.66
2022-12-09T17:03:37.775Z,71.14
2022-12-09T17:06:15.476Z,71.07
2022-12-09T17:08:48.329Z,71.14
2022-12-09T17:11:21.891Z,71.03
2022-12-09T17:13:54.802Z,70.90
2022-12-09T17:16:27.836Z,70.93
2022-12-09T17:19:02.215Z,70.94
2022-12-09T17:21:35.071Z,71.06
2022-12-09T17:24:08.811Z,70.64
2022-12-09T17:26:41.733Z,70.68
2022-12-09T17:29:14.757Z,70.52
2022-12-09T17:31:49.748Z,71.30
2022-12-09T17:34:23.973Z,71.29
2022-12-09T17:36:57.095Z,70.85
2022-12-09T17:39:30.568Z,71.06
2022-12-09T17:42:03.302Z,71.19
2022-12-09T17:44:36.243Z,71.30
2022-12-09T17:47:09.735Z,71.19
2022-12-09T17:49:44.936Z,71.50
2022-12-09T17:52:17.819Z,71.20
2022-12-09T17:54:50.644Z,71.19
2022-12-09T17:57:23.730Z,71.46
2022-12-09T17:59:58.587Z,70.78
2022-12-09T18:02:31.436Z,71.19
2022-12-09T18:05:06.323Z,71.52
2022-12-09T18:07:39.394Z,71.55
2022-12-09T18:10:12.812Z,71.10
2022-12-09T18:12:47.119Z,70.85
2022-12-09T18:15:20.073Z,70.85
2022-12-09T18:17:55.548Z,70.80
2022-12-09T18:20:29.728Z,71.10
2022-12-09T18:23:05.315Z,71.17
2022-12-09T18:25:39.954Z,71.31
2022-12-09T18:28:12.773Z,70.81
2022-12-09T18:30:47.483Z,70.80
2022-12-09T18:33:33.354Z,71.18
2022-12-09T18:36:19.026Z,71.44
2022-12-09T18:38:52.376Z,71.15
2022-12-09T18:41:29.063Z,71.44
2022-12-09T18:44:05.644Z,71.36
2022-12-09T18:46:44.006Z,71.36
2022-12-09T18:49:24.835Z,71.34
2022-12-09T18:52:03.613Z,71.28
2022-12-09T18:54:40.011Z,71.36
2022-12-09T18:57:13.628Z,71.67
2022-12-09T18:59:50.359Z,71.54
2022-12-09T19:02:23.614Z,71.37
2022-12-09T19:04:57.069Z,71.47
2022-12-09T19:07:32.582Z,71.65
2022-12-09T19:10:08.153Z,71.74
2022-12-09T19:12:51.538Z,72.02
2022-12-09T19:15:28.453Z,72.03
2022-12-09T19:18:01.678Z,72.30
2022-12-09T19:20:34.877Z,72.45
2022-12-09T19:23:11.637Z,72.30
2022-12-09T19:25:45.106Z,71.95
2022-12-09T19:28:20.461Z,71.69
2022-12-09T19:30:56.133Z,72.15
2022-12-09T19:33:29.138Z,71.76
2022-12-09T19:36:03.910Z,72.21
2022-12-09T19:38:38.949Z,71.57
2022-12-09T19:41:12.035Z,72.19
2022-12-09T19:43:45.422Z,72.43
2022-12-09T19:46:18.541Z,72.41
2022-12-09T19:48:51.952Z,72.54
2022-12-09T19:51:29.114Z,72.20
2022-12-09T19:54:06.140Z,72.67
2022-12-09T19:56:39.848Z,72.67
2022-12-09T19:59:13.837Z,72.78
2022-12-09T20:01:47.259Z,72.44
2022-12-09T20:04:48.097Z,72.04
2022-12-09T20:07:17.352Z,72.26
2022-12-09T20:09:52.135Z,72.47
2022-12-09T20:12:25.444Z,72.27
2022-12-09T20:14:58.603Z,72.31
2022-12-09T20:17:32.301Z,72.32
2022-12-09T20:20:07.562Z,72.63
2022-12-09T20:22:40.843Z,72.41
2022-12-09T20:25:14.961Z,72.30
2022-12-09T20:27:48.661Z,72.12
2022-12-09T20:30:23.466Z,72.27
2022-12-09T20:32:56.584Z,72.69
2022-12-09T20:35:29.444Z,72.57
2022-12-09T20:38:02.986Z,72.47
2022-12-09T20:40:40.772Z,72.74
2022-12-09T20:43:17.393Z,72.74
2022-12-09T20:45:51.041Z,72.98
2022-12-09T20:48:27.132Z,72.55
2022-12-09T20:51:07.520Z,72.08
2022-12-09T20:53:43.880Z,72.11
2022-12-09T20:56:25.091Z,71.98
2022-12-09T20:59:03.385Z,72.31
2022-12-09T21:01:38.275Z,72.02
2022-12-09T21:04:11.471Z,72.08
2022-12-09T21:06:45.108Z,72.36
2022-12-09T21:09:23.401Z,72.21
2022-12-09T21:11:58.057Z,72.31
2022-12-09T21:14:33.299Z,72.44
2022-12-09T21:17:06.313Z,71.93
2022-12-09T21:19:39.462Z,71.89
2022-12-09T21:22:12.382Z,71.71
2022-12-09T21:24:45.762Z,71.98
2022-12-09T21:27:20.862Z,71.89
2022-12-09T21:29:53.875Z,71.83
2022-12-09T21:32:27.061Z,71.62
2022-12-09T21:35:02.174Z,72.13
2022-12-09T21:37:36.851Z,72.20
2022-12-09T21:40:11.328Z,72.40
2022-12-09T21:42:45.862Z,72.17
2022-12-09T21:45:19.112Z,72.15
2022-12-09T21:47:52.160Z,72.32
2022-12-09T21:50:25.386Z,72.39
2022-12-09T21:52:58.553Z,72.33
2022-12-09T21:55:34.395Z,72.30
2022-12-09T21:58:08.792Z,72.50
2022-12-09T22:00:43.524Z,72.37
2022-12-09T22:03:16.367Z,72.20
2022-12-09T22:05:51.545Z,72.74
2022-12-09T22:08:28.318Z,72.12
2022-12-09T22:11:02.614Z,72.25
2022-12-09T22:13:39.527Z,72.46
2022-12-09T22:16:16.905Z,72.33
2022-12-09T22:18:50.620Z,72.19
2022-12-09T22:21:26.339Z,72.00
2022-12-09T22:24:02.734Z,72.05
2022-12-09T22:26:35.704Z,72.31
2022-12-09T22:29:12.978Z,72.75
2022-12-09T22:31:47.521Z,72.46
2022-12-09T22:34:21.596Z,72.35
2022-12-09T22:36:55.328Z,72.58
2022-12-09T22:39:28.065Z,72.23
2022-12-09T22:42:00.821Z,72.27
2022-12-09T22:44:35.913Z,72.25
2022-12-09T22:47:09.578Z,72.22
2022-12-09T22:49:42.437Z,72.32
2022-12-09T22:52:15.274Z,71.94
2022-12-09T22:54:49.775Z,72.19
2022-12-09T22:57:22.712Z,72.26
2022-12-09T22:59:56.876Z,72.06
2022-12-09T23:02:30.048Z,72.06
2022-12-09T23:05:03.209Z,71.82
2022-12-09T23:07:36.837Z,71.57
2022-12-09T23:10:11.017Z,72.11
2022-12-09T23:12:43.942Z,72.31
2022-12-09T23:15:18.706Z,71.95
2022-12-09T23:17:51.722Z,72.45
2022-12-09T23:20:24.361Z,71.92
2022-12-09T23:22:57.552Z,72.31
2022-12-09T23:25:30.958Z,72.40
2022-12-09T23:28:04.445Z,72.30
2022-12-09T23:30:38.894Z,72.11
2022-12-09T23:33:11.722Z,72.31
2022-12-09T23:35:44.559Z,72.38
2022-12-09T23:38:17.362Z,72.45
2022-12-09T23:40:53.995Z,71.94
2022-12-09T23:43:27.227Z,72.16
2022-12-09T23:46:02.830Z,72.17
2022-12-09T23:48:36.383Z,72.00
2022-12-09T23:51:13.026Z,72.20
2022-12-09T23:53:47.831Z,71.85
2022-12-09T23:56:22.977Z,71.79
2022-12-09T23:58:59.110Z,72.11
